CSCL Los Angeles — A8AX8 — position and weather

sailwx.info

Track history (hours):
 
Tides and Currents Weather Stations Pressure Air Temp Water Temp Dewpoint Dewpoint Depression Visibility Wind Speed Wind Dir Waves Ship Positions

CSCL Los Angeles

Last reported at 2017-Nov-04 10:58 UTC. Time now 2017-Nov-21 08:24 UTC.
Position N 36°15' E 014°54'.
Warning: this ship's position is 16 days out of date.

Length 277.2 m; beam 40 m; draft 14 m.

Type: Cargo ship. MMSI: 636090590.

Date/timePositionNaut miles runAvg speedWind from/ knotsBaromVisibWave heightAir tempDewpointWater temp
2017-Nov-04 10:58N 36°15' E 014°54'716.0
2017-Nov-04 10:30N 36°17' E 014°46'815.8
2017-Nov-04 10:00N 36°19' E 014°36'816.0
2017-Nov-04 09:30N 36°22' E 014°27'816.2
2017-Nov-04 09:00N 36°25' E 014°18'816.0
2017-Nov-04 08:30N 36°27' E 014°08'816.2
2017-Nov-04 08:00N 36°29' E 013°58'816.0
2017-Nov-04 07:30N 36°32' E 013°49'816.2
2017-Nov-04 07:00N 36°35' E 013°40'1416.1
2017-Nov-04 06:07N 36°39' E 013°23'216.2
2017-Nov-04 06:00N 36°40' E 013°20'8716.1
2017-Nov-04 00:34N 37°09' E 011°37'5316.4
2017-Nov-03 21:19N 37°29' E 010°35'816.6
2017-Nov-03 20:51N 37°30' E 010°25'36716.8
2017-Nov-02 22:57N 37°00' E 002°46'816.9
2017-Nov-02 22:30N 36°59' E 002°36'1617.1
2017-Nov-02 21:36N 36°56' E 002°17'2617.0
2017-Nov-02 20:03N 36°53' E 001°45'217.1
2017-Nov-02 19:58N 36°53' E 001°43'817.0
2017-Nov-02 19:29N 36°51' E 001°32'1016.9
2017-Nov-02 18:53N 36°50' E 001°20'10216.9
2017-Nov-02 12:53N 36°34' W 000°45'22017.1
2017-Nov-01 23:59N 36°00' W 005°15'817.4
2017-Nov-01 23:31N 35°58' W 005°25'  
2017-Oct-30 17:45N 39°04' W 022°39'915.9
2017-Oct-30 17:13N 39°05' W 022°50'616.0
2017-Oct-30 16:51N 39°06' W 022°57'715.8
2017-Oct-30 16:25N 39°07' W 023°06'1815.9
2017-Oct-30 15:17N 39°10' W 023°29'716.1
2017-Oct-30 14:50N 39°12' W 023°38'815.7
2017-Oct-30 14:20N 39°13' W 023°48'13017.8
2017-Oct-30 07:01N 39°33' W 026°34'017.6
2017-Oct-30 07:00N 39°33' W 026°35'816.7
2017-Oct-30 06:30N 39°34' W 026°45'816.8
2017-Oct-30 06:00N 39°35' W 026°56'1116.6
2017-Oct-30 05:22N 39°36' W 027°10'716.4
2017-Oct-30 04:57N 39°37' W 027°19'716.7
2017-Oct-30 04:30N 39°38' W 027°28'816.5
2017-Oct-30 04:01N 39°39' W 027°39'816.6
2017-Oct-30 03:31N 39°40' W 027°49'816.6
2017-Oct-30 03:00N 39°41' W 028°00'816.4
2017-Oct-30 02:30N 39°42' W 028°11'816.6
2017-Oct-30 02:00N 39°43' W 028°21'816.6
2017-Oct-30 01:30N 39°44' W 028°32'816.5
2017-Oct-30 01:00N 39°45' W 028°43'816.6
2017-Oct-30 00:30N 39°46' W 028°54'816.6
2017-Oct-30 00:00N 39°47' W 029°04'816.8
2017-Oct-29 23:30N 39°47' W 029°15'816.6
2017-Oct-29 23:00N 39°48' W 029°26'816.9
2017-Oct-29 22:30N 39°49' W 029°37'817.0
2017-Oct-29 22:00N 39°50' W 029°48'817.0
2017-Oct-29 21:31N 39°51' W 029°59'917.0
2017-Oct-29 21:00N 39°52' W 030°10'917.2
2017-Oct-29 20:29N 39°53' W 030°21'1417.2
2017-Oct-29 19:41N 39°54' W 030°40'1917.4
2017-Oct-29 18:36N 39°56' W 031°04'117.5
2017-Oct-29 18:30N 39°56' W 031°06'917.2
2017-Oct-29 18:00N 39°56' W 031°17'917.2
2017-Oct-29 17:29N 39°56' W 031°29'817.1
2017-Oct-29 17:00N 39°56' W 031°40'917.3
2017-Oct-29 16:30N 39°56' W 031°51'  
2017-Oct-25 12:00N 36°06' W 065°48'   150 / 301020.4 5.4 24.022.5
Track history (hours):
 
Tides and Currents Weather Stations Pressure Air Temp Water Temp Dewpoint Dewpoint Depression Visibility Wind Speed Wind Dir Waves Ship Positions

CSCL Los Angeles

Last reported at 2017-Nov-04 10:58 UTC. Time now 2017-Nov-21 08:24 UTC.
Position N 36°15' E 014°54'.
Warning: this ship's position is 16 days out of date.

Length 277.2 m; beam 40 m; draft 14 m.

Type: Cargo ship. MMSI: 636090590.

Date/timePositionNaut miles runAvg speedWind from/ knotsBaromVisibWave heightAir tempDewpointWater temp
2017-Nov-04 10:58N 36°15' E 014°54'716.0
2017-Nov-04 10:30N 36°17' E 014°46'815.8
2017-Nov-04 10:00N 36°19' E 014°36'816.0
2017-Nov-04 09:30N 36°22' E 014°27'816.2
2017-Nov-04 09:00N 36°25' E 014°18'816.0
2017-Nov-04 08:30N 36°27' E 014°08'816.2
2017-Nov-04 08:00N 36°29' E 013°58'816.0
2017-Nov-04 07:30N 36°32' E 013°49'816.2
2017-Nov-04 07:00N 36°35' E 013°40'1416.1
2017-Nov-04 06:07N 36°39' E 013°23'216.2
2017-Nov-04 06:00N 36°40' E 013°20'8716.1
2017-Nov-04 00:34N 37°09' E 011°37'5316.4
2017-Nov-03 21:19N 37°29' E 010°35'816.6
2017-Nov-03 20:51N 37°30' E 010°25'36716.8
2017-Nov-02 22:57N 37°00' E 002°46'816.9
2017-Nov-02 22:30N 36°59' E 002°36'1617.1
2017-Nov-02 21:36N 36°56' E 002°17'2617.0
2017-Nov-02 20:03N 36°53' E 001°45'217.1
2017-Nov-02 19:58N 36°53' E 001°43'817.0
2017-Nov-02 19:29N 36°51' E 001°32'1016.9
2017-Nov-02 18:53N 36°50' E 001°20'10216.9
2017-Nov-02 12:53N 36°34' W 000°45'22017.1
2017-Nov-01 23:59N 36°00' W 005°15'817.4
2017-Nov-01 23:31N 35°58' W 005°25'  
2017-Oct-30 17:45N 39°04' W 022°39'915.9
2017-Oct-30 17:13N 39°05' W 022°50'616.0
2017-Oct-30 16:51N 39°06' W 022°57'715.8
2017-Oct-30 16:25N 39°07' W 023°06'1815.9
2017-Oct-30 15:17N 39°10' W 023°29'716.1
2017-Oct-30 14:50N 39°12' W 023°38'815.7
2017-Oct-30 14:20N 39°13' W 023°48'13017.8
2017-Oct-30 07:01N 39°33' W 026°34'017.6
2017-Oct-30 07:00N 39°33' W 026°35'816.7
2017-Oct-30 06:30N 39°34' W 026°45'816.8
2017-Oct-30 06:00N 39°35' W 026°56'1116.6
2017-Oct-30 05:22N 39°36' W 027°10'716.4
2017-Oct-30 04:57N 39°37' W 027°19'716.7
2017-Oct-30 04:30N 39°38' W 027°28'816.5
2017-Oct-30 04:01N 39°39' W 027°39'816.6
2017-Oct-30 03:31N 39°40' W 027°49'816.6
2017-Oct-30 03:00N 39°41' W 028°00'816.4
2017-Oct-30 02:30N 39°42' W 028°11'816.6
2017-Oct-30 02:00N 39°43' W 028°21'816.6
2017-Oct-30 01:30N 39°44' W 028°32'816.5
2017-Oct-30 01:00N 39°45' W 028°43'816.6
2017-Oct-30 00:30N 39°46' W 028°54'816.6
2017-Oct-30 00:00N 39°47' W 029°04'816.8
2017-Oct-29 23:30N 39°47' W 029°15'816.6
2017-Oct-29 23:00N 39°48' W 029°26'816.9
2017-Oct-29 22:30N 39°49' W 029°37'817.0
2017-Oct-29 22:00N 39°50' W 029°48'817.0
2017-Oct-29 21:31N 39°51' W 029°59'917.0
2017-Oct-29 21:00N 39°52' W 030°10'917.2
2017-Oct-29 20:29N 39°53' W 030°21'1417.2
2017-Oct-29 19:41N 39°54' W 030°40'1917.4
2017-Oct-29 18:36N 39°56' W 031°04'117.5
2017-Oct-29 18:30N 39°56' W 031°06'917.2
2017-Oct-29 18:00N 39°56' W 031°17'917.2
2017-Oct-29 17:29N 39°56' W 031°29'817.1
2017-Oct-29 17:00N 39°56' W 031°40'917.3
2017-Oct-29 16:30N 39°56' W 031°51'  
2017-Oct-25 12:00N 36°06' W 065°48'   150 / 301020.4 5.4 24.022.5

Dump ship's entire track history